Time;durP1;ratioP1;P1;durP2;ratioP2;P2;SDS_P1;SDS_P2;PMS_P1;PMS_P2;Temp;Humidity;BMP_temperature;BMP_pressure;BME280_temperature;BME280_humidity;BME280_pressure;Samples;Min_cycle;Max_cycle;Signal;HPM_P1;HPM_P2
2021/12/30 00:01:15;;;;;;;14.57;2.42;;;;;;;;;;5000725;28;20037;-57
2021/12/30 00:03:43;;;;;;;21.83;2.47;;;;;;;;;;5017313;28;20999;-57
2021/12/30 00:06:09;;;;;;;16.10;2.70;;;;;;;;;;5000233;28;20036;-56
2021/12/30 00:08:35;;;;;;;28.85;2.97;;;;;;;;;;5000121;28;20100;-57
2021/12/30 00:11:01;;;;;;;22.33;2.90;;;;;;;;;;4999379;28;22057;-56
2021/12/30 00:13:27;;;;;;;22.20;2.63;;;;;;;;;;5016246;28;20033;-58
2021/12/30 00:15:57;;;;;;;22.05;2.95;;;;;;;;;;5019248;28;21870;-57
2021/12/30 00:18:25;;;;;;;31.02;3.10;;;;;;;;;;5018527;28;20106;-57
2021/12/30 00:20:55;;;;;;;29.23;2.78;;;;;;;;;;4994917;28;21938;-57
2021/12/30 00:27:03;;;;;;;32.60;3.10;;;;;;;;;;5019148;28;20195;-57
2021/12/30 00:29:29;;;;;;;28.98;3.55;;;;;;;;;;4994573;28;20588;-59
2021/12/30 00:31:56;;;;;;;22.33;3.10;;;;;;;;;;5015494;28;20033;-57
2021/12/30 00:34:24;;;;;;;25.00;3.42;;;;;;;;;;4994705;28;20028;-57
2021/12/30 00:36:52;;;;;;;26.30;3.67;;;;;;;;;;5015025;28;20123;-57
2021/12/30 00:39:20;;;;;;;30.55;3.85;;;;;;;;;;5028437;28;20047;-58
2021/12/30 00:41:50;;;;;;;26.58;3.22;;;;;;;;;;5016273;28;20124;-56
2021/12/30 00:44:17;;;;;;;28.08;3.00;;;;;;;;;;5016556;28;20440;-56
2021/12/30 00:46:50;;;;;;;31.17;4.72;;;;;;;;;;4998415;28;20033;-57
2021/12/30 00:49:21;;;;;;;35.75;3.72;;;;;;;;;;5029902;28;20033;-57
2021/12/30 00:51:49;;;;;;;37.05;4.50;;;;;;;;;;5031321;28;20132;-57
2021/12/30 00:54:15;;;;;;;22.35;3.80;;;;;;;;;;5000235;28;20044;-58
2021/12/30 00:56:44;;;;;;;31.70;4.82;;;;;;;;;;5015203;28;20120;-58
2021/12/30 00:59:09;;;;;;;26.50;3.65;;;;;;;;;;5017313;28;20044;-58
2021/12/30 01:01:35;;;;;;;19.83;3.70;;;;;;;;;;5011416;28;20098;-58
2021/12/30 01:04:03;;;;;;;23.73;3.72;;;;;;;;;;5037389;28;20078;-57
2021/12/30 01:06:31;;;;;;;24.98;3.53;;;;;;;;;;5029612;28;20487;-58
2021/12/30 01:08:59;;;;;;;23.70;3.45;;;;;;;;;;5020433;28;20056;-58
2021/12/30 01:11:26;;;;;;;28.23;3.60;;;;;;;;;;5037372;28;20049;-59
2021/12/30 01:14:02;;;;;;;32.30;4.15;;;;;;;;;;5015435;28;20121;-57
2021/12/30 01:16:30;;;;;;;28.80;3.83;;;;;;;;;;5019150;28;21889;-56
2021/12/30 01:19:22;;;;;;;35.03;4.07;;;;;;;;;;5035718;28;20083;-57
2021/12/30 01:21:53;;;;;;;;;;;;;;;;;;5033814;28;19916;-57
2021/12/30 01:24:22;;;;;;;29.83;3.58;;;;;;;;;;5019673;28;20144;-57
2021/12/30 01:26:52;;;;;;;31.85;3.55;;;;;;;;;;5003062;28;20040;-57
2021/12/30 01:29:22;;;;;;;25.10;3.47;;;;;;;;;;5036607;28;22029;-57
2021/12/30 01:31:52;;;;;;;35.72;3.97;;;;;;;;;;5017981;28;20032;-57
2021/12/30 01:34:17;;;;;;;27.77;4.30;;;;;;;;;;5001650;28;20133;-57
2021/12/30 01:36:45;;;;;;;34.05;6.03;;;;;;;;;;5036358;28;20037;-59
2021/12/30 01:39:13;;;;;;;39.33;7.90;;;;;;;;;;4980242;28;20052;-58
2021/12/30 01:41:40;;;;;;;43.38;5.25;;;;;;;;;;5003011;28;20041;-58
2021/12/30 01:44:08;;;;;;;30.52;4.35;;;;;;;;;;5016435;28;20425;-57
2021/12/30 01:46:43;;;;;;;25.00;4.32;;;;;;;;;;5030950;28;20065;-57
2021/12/30 01:52:27;;;;;;;23.48;3.47;;;;;;;;;;5032972;28;20033;-55
2021/12/30 01:54:53;;;;;;;49.35;5.40;;;;;;;;;;5017134;28;20036;-57
2021/12/30 01:57:22;;;;;;;30.30;4.25;;;;;;;;;;5016194;28;20098;-57
2021/12/30 01:59:48;;;;;;;29.05;4.28;;;;;;;;;;5016060;28;20071;-58
2021/12/30 02:02:17;;;;;;;26.77;5.40;;;;;;;;;;5033296;28;20608;-56
2021/12/30 02:04:49;;;;;;;32.47;3.90;;;;;;;;;;5013140;28;20106;-56
2021/12/30 02:07:18;;;;;;;30.65;4.38;;;;;;;;;;5015193;28;20033;-57
2021/12/30 02:09:45;;;;;;;43.83;5.32;;;;;;;;;;4999417;28;20037;-56
2021/12/30 02:12:16;;;;;;;36.80;4.63;;;;;;;;;;5032075;28;20040;-57
2021/12/30 02:14:44;;;;;;;24.33;4.30;;;;;;;;;;5015100;28;20041;-57
2021/12/30 02:17:16;;;;;;;32.38;3.80;;;;;;;;;;5031642;28;20029;-57
2021/12/30 02:19:42;;;;;;;39.80;4.28;;;;;;;;;;5000442;28;20147;-57
2021/12/30 02:22:07;;;;;;;32.60;4.18;;;;;;;;;;5030994;28;20035;-57
2021/12/30 02:24:34;;;;;;;34.75;4.30;;;;;;;;;;5015783;28;20034;-57
2021/12/30 02:27:00;;;;;;;36.15;3.70;;;;;;;;;;5033525;28;20599;-57
2021/12/30 02:29:25;;;;;;;37.45;4.80;;;;;;;;;;5015858;28;20073;-57
2021/12/30 02:31:53;;;;;;;43.70;4.30;;;;;;;;;;5015584;28;20041;-56
2021/12/30 02:34:26;;;;;;;39.17;4.32;;;;;;;;;;5011299;28;20037;-58
2021/12/30 02:36:54;;;;;;;30.45;3.67;;;;;;;;;;4994277;28;20033;-56
2021/12/30 02:39:23;;;;;;;35.65;4.65;;;;;;;;;;5014991;28;20577;-57
2021/12/30 02:41:51;;;;;;;36.60;4.25;;;;;;;;;;5026032;28;21249;-57
2021/12/30 02:44:19;;;;;;;20.65;3.25;;;;;;;;;;5016093;28;20095;-58
2021/12/30 02:46:51;;;;;;;33.17;3.70;;;;;;;;;;5015373;28;20123;-57
2021/12/30 02:49:22;;;;;;;43.40;4.50;;;;;;;;;;5015806;28;20037;-56
2021/12/30 02:51:50;;;;;;;32.25;3.35;;;;;;;;;;5013629;28;20033;-57
2021/12/30 02:54:19;;;;;;;36.88;4.30;;;;;;;;;;5030115;28;20152;-57
2021/12/30 02:56:50;;;;;;;32.72;4.20;;;;;;;;;;5033982;28;20507;-56
2021/12/30 02:59:18;;;;;;;49.47;6.53;;;;;;;;;;5031609;28;20059;-57
2021/12/30 03:01:44;;;;;;;31.73;4.22;;;;;;;;;;5033413;28;20036;-57
2021/12/30 03:04:13;;;;;;;31.42;5.85;;;;;;;;;;5015250;28;20122;-57
2021/12/30 03:06:41;;;;;;;25.33;4.95;;;;;;;;;;5015718;28;20040;-55
2021/12/30 03:09:09;;;;;;;45.78;4.95;;;;;;;;;;5016438;28;20525;-56
2021/12/30 03:11:39;;;;;;;38.40;4.63;;;;;;;;;;5029632;28;20110;-57
2021/12/30 03:14:05;;;;;;;28.10;4.55;;;;;;;;;;5032755;28;20080;-56
2021/12/30 03:16:35;;;;;;;49.95;4.95;;;;;;;;;;5009843;28;20033;-57
2021/12/30 03:19:01;;;;;;;36.70;5.97;;;;;;;;;;5030395;28;20579;-57
2021/12/30 03:21:31;;;;;;;49.55;6.93;;;;;;;;;;5033142;28;20025;-57
2021/12/30 03:24:00;;;;;;;35.10;5.53;;;;;;;;;;4993818;28;21933;-58
2021/12/30 03:26:31;;;;;;;48.83;6.30;;;;;;;;;;5007314;28;20028;-56
2021/12/30 03:28:59;;;;;;;47.67;6.78;;;;;;;;;;5015502;28;20056;-57
2021/12/30 03:31:28;;;;;;;29.75;4.97;;;;;;;;;;5031770;28;20047;-57
2021/12/30 03:33:56;;;;;;;39.20;6.45;;;;;;;;;;4996721;28;20033;-57
2021/12/30 03:36:47;;;;;;;42.10;5.80;;;;;;;;;;5012110;28;20036;-57
2021/12/30 03:39:15;;;;;;;49.05;6.07;;;;;;;;;;5012690;28;20033;-57
2021/12/30 03:41:40;;;;;;;28.77;5.18;;;;;;;;;;5025292;28;20044;-57
2021/12/30 03:44:07;;;;;;;40.25;6.72;;;;;;;;;;5030625;28;20029;-57
2021/12/30 03:46:32;;;;;;;46.92;6.43;;;;;;;;;;5025139;28;20033;-57
2021/12/30 03:49:01;;;;;;;52.00;6.10;;;;;;;;;;5031086;28;20147;-59
2021/12/30 03:51:30;;;;;;;52.95;7.88;;;;;;;;;;5012306;28;20127;-57
2021/12/30 03:54:00;;;;;;;54.15;6.70;;;;;;;;;;5012714;28;20037;-58
2021/12/30 03:56:29;;;;;;;40.58;7.28;;;;;;;;;;5012797;28;20064;-57
2021/12/30 03:58:58;;;;;;;44.17;7.97;;;;;;;;;;5029096;28;20064;-58
2021/12/30 04:01:26;;;;;;;54.10;9.88;;;;;;;;;;5029229;28;20040;-57
2021/12/30 04:03:54;;;;;;;52.90;8.88;;;;;;;;;;5024684;28;20409;-58
2021/12/30 04:06:23;;;;;;;36.95;8.52;;;;;;;;;;5029378;28;20032;-56
2021/12/30 04:09:22;;;;;;;32.35;7.03;;;;;;;;;;5027245;28;20033;-56
2021/12/30 04:11:50;;;;;;;43.85;8.10;;;;;;;;;;5029661;28;21766;-56
2021/12/30 04:14:18;;;;;;;39.40;7.40;;;;;;;;;;5031654;28;20119;-56
2021/12/30 04:16:43;;;;;;;36.42;7.22;;;;;;;;;;5012410;28;20067;-56
2021/12/30 04:19:14;;;;;;;46.90;7.00;;;;;;;;;;5012095;28;20033;-58
2021/12/30 04:21:41;;;;;;;52.25;7.85;;;;;;;;;;5012762;28;20032;-55
2021/12/30 04:24:09;;;;;;;35.55;7.38;;;;;;;;;;5013685;28;20064;-56
2021/12/30 04:26:37;;;;;;;42.55;6.85;;;;;;;;;;5013215;28;20112;-56
2021/12/30 04:29:04;;;;;;;40.35;5.90;;;;;;;;;;5031140;28;20658;-57
2021/12/30 04:31:32;;;;;;;39.83;5.97;;;;;;;;;;5028280;28;20510;-57
2021/12/30 04:33:58;;;;;;;45.70;6.28;;;;;;;;;;5027940;28;20037;-56
2021/12/30 04:36:24;;;;;;;47.22;6.28;;;;;;;;;;4995111;28;20037;-57
2021/12/30 04:38:51;;;;;;;53.63;6.40;;;;;;;;;;5023695;28;20033;-57
2021/12/30 04:41:19;;;;;;;34.63;5.75;;;;;;;;;;5024417;28;20072;-57
2021/12/30 04:43:45;;;;;;;37.47;6.88;;;;;;;;;;4996259;28;20574;-57
2021/12/30 04:46:13;;;;;;;51.00;6.72;;;;;;;;;;5028182;28;20033;-57
2021/12/30 04:48:41;;;;;;;46.22;6.30;;;;;;;;;;5011133;28;20041;-57
2021/12/30 04:51:08;;;;;;;38.95;6.90;;;;;;;;;;4997461;28;20060;-58
2021/12/30 04:53:36;;;;;;;31.45;6.03;;;;;;;;;;5013264;28;20041;-58
2021/12/30 04:56:05;;;;;;;49.22;8.35;;;;;;;;;;5030277;28;20044;-57
2021/12/30 04:58:31;;;;;;;40.65;6.38;;;;;;;;;;5011650;28;21032;-57
2021/12/30 05:00:58;;;;;;;52.97;7.75;;;;;;;;;;5031563;28;20045;-56
2021/12/30 05:03:26;;;;;;;31.98;7.28;;;;;;;;;;5012952;28;20067;-57
2021/12/30 05:05:52;;;;;;;45.63;6.85;;;;;;;;;;5028086;28;20036;-57
2021/12/30 05:08:21;;;;;;;55.35;8.15;;;;;;;;;;5029739;28;20147;-56
2021/12/30 05:10:53;;;;;;;44.30;8.23;;;;;;;;;;5029897;28;20058;-56
2021/12/30 05:13:19;;;;;;;46.88;7.63;;;;;;;;;;5029709;28;20051;-57
2021/12/30 05:15:47;;;;;;;48.22;7.95;;;;;;;;;;5027190;28;20029;-56
2021/12/30 05:18:15;;;;;;;42.05;8.25;;;;;;;;;;5008030;28;20135;-56
2021/12/30 05:20:41;;;;;;;58.60;9.82;;;;;;;;;;5011406;28;20059;-56
2021/12/30 05:23:15;;;;;;;49.67;9.95;;;;;;;;;;5030484;28;20033;-56
2021/12/30 05:25:44;;;;;;;47.58;8.98;;;;;;;;;;5012472;28;20134;-58
2021/12/30 05:28:11;;;;;;;61.90;11.80;;;;;;;;;;5028695;28;20091;-56
2021/12/30 05:30:39;;;;;;;49.47;9.52;;;;;;;;;;4997847;28;20053;-57
2021/12/30 05:33:05;;;;;;;40.70;9.93;;;;;;;;;;5030186;28;20596;-57
2021/12/30 05:35:30;;;;;;;60.15;10.82;;;;;;;;;;5027247;28;20041;-57
2021/12/30 05:38:02;;;;;;;50.95;10.82;;;;;;;;;;5027959;28;20039;-57
2021/12/30 05:40:28;;;;;;;61.80;12.30;;;;;;;;;;5014726;28;20051;-57
2021/12/30 05:42:54;;;;;;;52.78;12.27;;;;;;;;;;5014735;28;20052;-55
2021/12/30 05:45:22;;;;;;;56.58;12.30;;;;;;;;;;5012724;28;20160;-56
2021/12/30 05:47:51;;;;;;;55.38;11.95;;;;;;;;;;5010977;28;20036;-57
2021/12/30 05:50:22;;;;;;;59.15;11.30;;;;;;;;;;5032448;28;20139;-56
2021/12/30 05:52:53;;;;;;;36.63;10.73;;;;;;;;;;5030614;28;20070;-55
2021/12/30 05:55:19;;;;;;;64.57;11.35;;;;;;;;;;5033333;28;20063;-56
2021/12/30 05:57:45;;;;;;;34.55;10.35;;;;;;;;;;5015903;28;21970;-57
2021/12/30 06:00:12;;;;;;;42.38;9.98;;;;;;;;;;5032317;28;20044;-57
2021/12/30 06:02:38;;;;;;;40.35;10.32;;;;;;;;;;5017033;28;20029;-57
2021/12/30 06:05:07;;;;;;;38.72;8.93;;;;;;;;;;5032621;28;20029;-56
2021/12/30 06:07:32;;;;;;;28.75;9.80;;;;;;;;;;5014343;28;20033;-57
2021/12/30 06:10:03;;;;;;;30.48;8.85;;;;;;;;;;5031614;28;20064;-56
2021/12/30 06:12:31;;;;;;;29.10;8.73;;;;;;;;;;4995157;28;20032;-57
2021/12/30 06:14:59;;;;;;;21.00;8.05;;;;;;;;;;5032252;28;20036;-57
2021/12/30 06:17:24;;;;;;;26.02;7.95;;;;;;;;;;5017262;28;20200;-57
2021/12/30 06:19:55;;;;;;;26.67;8.05;;;;;;;;;;5029315;28;20029;-57
2021/12/30 06:22:22;;;;;;;26.02;7.97;;;;;;;;;;5015524;28;21909;-58
2021/12/30 06:24:48;;;;;;;21.40;7.40;;;;;;;;;;5032928;28;20500;-56
2021/12/30 06:27:13;;;;;;;21.48;7.97;;;;;;;;;;5028852;28;20063;-57
2021/12/30 06:29:39;;;;;;;18.58;7.07;;;;;;;;;;5030943;28;20056;-55
2021/12/30 06:32:05;;;;;;;23.23;7.88;;;;;;;;;;5034313;28;20037;-57
2021/12/30 06:34:36;;;;;;;24.73;7.82;;;;;;;;;;5030025;28;20929;-56
2021/12/30 06:37:03;;;;;;;29.75;8.68;;;;;;;;;;5013266;28;20036;-57
2021/12/30 06:39:31;;;;;;;30.10;9.57;;;;;;;;;;4994948;28;20044;-56
2021/12/30 06:41:56;;;;;;;26.00;9.48;;;;;;;;;;4999183;28;20029;-57
2021/12/30 06:44:25;;;;;;;30.60;8.85;;;;;;;;;;5015575;28;20156;-57
2021/12/30 06:46:57;;;;;;;24.45;8.68;;;;;;;;;;5014699;28;20028;-56
2021/12/30 06:49:23;;;;;;;34.85;8.95;;;;;;;;;;5027633;28;20021;-57
2021/12/30 06:51:48;;;;;;;28.52;8.38;;;;;;;;;;5014582;28;20033;-57
2021/12/30 06:54:14;;;;;;;33.33;9.70;;;;;;;;;;4999094;28;20033;-58
2021/12/30 06:56:42;;;;;;;34.42;9.05;;;;;;;;;;5015509;28;20037;-58
2021/12/30 06:59:14;;;;;;;38.70;9.23;;;;;;;;;;5032306;28;20029;-58
2021/12/30 07:01:45;;;;;;;23.77;8.90;;;;;;;;;;5031914;28;20032;-58
2021/12/30 07:04:10;;;;;;;37.17;8.88;;;;;;;;;;5032418;28;20115;-57
2021/12/30 07:06:38;;;;;;;28.23;8.48;;;;;;;;;;5000342;28;20041;-57
2021/12/30 07:09:06;;;;;;;34.75;8.35;;;;;;;;;;5016025;28;20720;-57
2021/12/30 07:11:39;;;;;;;28.27;8.25;;;;;;;;;;5032039;28;20041;-57
2021/12/30 07:14:05;;;;;;;27.63;8.98;;;;;;;;;;5028524;28;20041;-57
2021/12/30 07:16:30;;;;;;;34.83;7.18;;;;;;;;;;5031667;28;20361;-57
2021/12/30 07:18:58;;;;;;;21.95;6.53;;;;;;;;;;5031919;28;20032;-57
2021/12/30 07:21:26;;;;;;;21.35;7.00;;;;;;;;;;5013728;28;20064;-58
2021/12/30 07:23:51;;;;;;;23.50;7.53;;;;;;;;;;5014672;28;20159;-57
2021/12/30 07:26:19;;;;;;;16.67;5.68;;;;;;;;;;5015054;28;20029;-58
2021/12/30 07:28:47;;;;;;;23.27;7.28;;;;;;;;;;5028797;28;20125;-58
2021/12/30 07:31:15;;;;;;;21.23;6.60;;;;;;;;;;5011834;28;20037;-57
2021/12/30 07:33:40;;;;;;;13.25;5.25;;;;;;;;;;5012790;28;20025;-58
2021/12/30 07:36:08;;;;;;;17.98;6.35;;;;;;;;;;4995253;28;20075;-57
2021/12/30 07:38:39;;;;;;;14.35;5.40;;;;;;;;;;4997425;28;20028;-57
2021/12/30 07:41:09;;;;;;;15.52;5.82;;;;;;;;;;4981898;28;20032;-59
2021/12/30 07:43:34;;;;;;;14.82;4.88;;;;;;;;;;4997100;28;20075;-57
2021/12/30 07:46:01;;;;;;;11.27;4.82;;;;;;;;;;5029189;28;20028;-57
2021/12/30 07:48:28;;;;;;;12.85;5.90;;;;;;;;;;4996677;28;20079;-57
2021/12/30 07:50:56;;;;;;;18.75;6.20;;;;;;;;;;5028507;28;20468;-58
2021/12/30 07:53:25;;;;;;;12.77;5.22;;;;;;;;;;5012789;28;20128;-57
2021/12/30 07:55:52;;;;;;;12.23;5.00;;;;;;;;;;5026250;28;20029;-58
2021/12/30 07:58:18;;;;;;;12.27;4.88;;;;;;;;;;5012550;28;20059;-58
2021/12/30 08:00:46;;;;;;;10.35;4.25;;;;;;;;;;5014368;28;20611;-60
2021/12/30 08:03:11;;;;;;;7.65;4.38;;;;;;;;;;4998894;28;20037;-58
2021/12/30 08:05:42;;;;;;;8.13;3.70;;;;;;;;;;5031169;28;20092;-58
2021/12/30 08:08:12;;;;;;;11.13;3.92;;;;;;;;;;4992765;28;20091;-59
2021/12/30 08:10:40;;;;;;;6.32;3.85;;;;;;;;;;5023691;28;20033;-59
2021/12/30 08:13:10;;;;;;;11.38;3.72;;;;;;;;;;5014822;28;20052;-59
2021/12/30 08:15:41;;;;;;;9.35;3.65;;;;;;;;;;5013351;28;20032;-59
2021/12/30 08:18:09;;;;;;;5.80;3.28;;;;;;;;;;5033496;28;20040;-59
2021/12/30 08:20:37;;;;;;;6.22;3.10;;;;;;;;;;5031881;28;20505;-59
2021/12/30 08:23:03;;;;;;;5.35;3.03;;;;;;;;;;5013821;28;20025;-59
2021/12/30 08:25:31;;;;;;;6.72;3.05;;;;;;;;;;4999737;28;20806;-59
2021/12/30 08:27:56;;;;;;;5.22;2.97;;;;;;;;;;4998453;28;20553;-60
2021/12/30 08:30:24;;;;;;;4.68;2.75;;;;;;;;;;4999019;28;20052;-59
2021/12/30 08:32:52;;;;;;;2.90;2.50;;;;;;;;;;5015912;28;20657;-57
2021/12/30 08:35:24;;;;;;;3.42;1.98;;;;;;;;;;5029900;28;20072;-59
2021/12/30 08:37:54;;;;;;;4.13;2.75;;;;;;;;;;5010851;28;22074;-60
2021/12/30 08:40:22;;;;;;;3.25;2.35;;;;;;;;;;5026360;28;20247;-60
2021/12/30 08:42:47;;;;;;;4.47;2.67;;;;;;;;;;5021191;28;20386;-59
2021/12/30 08:45:18;;;;;;;5.90;2.90;;;;;;;;;;5011721;28;21384;-58
2021/12/30 08:47:47;;;;;;;6.07;2.88;;;;;;;;;;5028320;28;20470;-58
2021/12/30 08:50:14;;;;;;;8.93;3.60;;;;;;;;;;4995714;28;20168;-59
2021/12/30 08:52:41;;;;;;;14.75;3.92;;;;;;;;;;5024959;28;20033;-58
2021/12/30 08:55:07;;;;;;;8.57;3.72;;;;;;;;;;5012220;28;20111;-59
2021/12/30 08:57:37;;;;;;;10.40;3.70;;;;;;;;;;5030661;28;20103;-57
2021/12/30 09:00:06;;;;;;;13.32;4.53;;;;;;;;;;5028376;28;20033;-58
2021/12/30 09:02:31;;;;;;;15.40;4.60;;;;;;;;;;5025537;28;20036;-59
2021/12/30 09:04:59;;;;;;;21.83;3.63;;;;;;;;;;5011137;28;20024;-59
2021/12/30 09:07:24;;;;;;;8.32;3.75;;;;;;;;;;5011356;28;20080;-58
2021/12/30 09:09:57;;;;;;;16.63;3.67;;;;;;;;;;5011853;28;20124;-58
2021/12/30 09:12:25;;;;;;;16.40;3.63;;;;;;;;;;5012212;28;20044;-58
2021/12/30 09:14:51;;;;;;;8.05;3.33;;;;;;;;;;5029424;28;20144;-58
2021/12/30 09:17:21;;;;;;;7.05;3.25;;;;;;;;;;5026508;28;20036;-58
2021/12/30 09:19:50;;;;;;;5.97;2.55;;;;;;;;;;5026440;28;20045;-58
2021/12/30 09:22:15;;;;;;;21.92;3.85;;;;;;;;;;5015139;28;20036;-58
2021/12/30 09:24:45;;;;;;;14.80;2.97;;;;;;;;;;5030872;28;20143;-57
2021/12/30 09:27:12;;;;;;;11.85;3.38;;;;;;;;;;5032640;28;20021;-57
2021/12/30 09:29:41;;;;;;;14.48;3.15;;;;;;;;;;5031646;28;20061;-57
2021/12/30 09:32:09;;;;;;;13.27;3.35;;;;;;;;;;5013716;28;20059;-57
2021/12/30 09:34:35;;;;;;;16.60;3.22;;;;;;;;;;5031140;28;21075;-57
2021/12/30 09:37:01;;;;;;;13.52;4.13;;;;;;;;;;5014544;28;20036;-57
2021/12/30 09:39:28;;;;;;;11.27;2.80;;;;;;;;;;4996450;28;20068;-57
2021/12/30 09:41:59;;;;;;;19.73;4.00;;;;;;;;;;5028174;28;20087;-57
2021/12/30 09:44:27;;;;;;;8.57;3.05;;;;;;;;;;5012400;28;20037;-57
2021/12/30 09:46:55;;;;;;;13.82;3.15;;;;;;;;;;5015900;28;20574;-57
2021/12/30 09:49:24;;;;;;;13.45;3.33;;;;;;;;;;5030829;28;20045;-58
2021/12/30 09:51:49;;;;;;;13.00;3.63;;;;;;;;;;4997718;28;20044;-58
2021/12/30 09:54:19;;;;;;;15.40;3.10;;;;;;;;;;5028182;28;20147;-57
2021/12/30 09:56:51;;;;;;;17.50;3.28;;;;;;;;;;5030907;28;20033;-58
2021/12/30 09:59:16;;;;;;;19.25;3.53;;;;;;;;;;5032925;28;20116;-57
2021/12/30 10:01:42;;;;;;;15.30;3.42;;;;;;;;;;5014434;28;20043;-57
2021/12/30 10:04:12;;;;;;;21.95;4.28;;;;;;;;;;4996931;28;20467;-57
2021/12/30 10:06:49;;;;;;;13.75;3.80;;;;;;;;;;5015267;28;20125;-58
2021/12/30 10:09:16;;;;;;;17.05;4.00;;;;;;;;;;5013775;28;20484;-58
2021/12/30 10:11:48;;;;;;;21.63;3.67;;;;;;;;;;5030867;28;20616;-57
2021/12/30 10:14:25;;;;;;;12.23;3.55;;;;;;;;;;5031960;28;20108;-57
2021/12/30 10:16:50;;;;;;;26.33;3.70;;;;;;;;;;5008975;28;20215;-57
2021/12/30 10:19:27;;;;;;;14.15;3.38;;;;;;;;;;5012316;28;20048;-57
2021/12/30 10:21:52;;;;;;;17.50;3.40;;;;;;;;;;5022815;28;20033;-57
2021/12/30 10:24:20;;;;;;;10.70;3.10;;;;;;;;;;5013705;28;20033;-57
2021/12/30 10:26:48;;;;;;;24.98;3.30;;;;;;;;;;5029617;28;20033;-58
2021/12/30 10:29:15;;;;;;;16.52;3.13;;;;;;;;;;5028245;28;20138;-58
2021/12/30 10:31:42;;;;;;;16.23;2.72;;;;;;;;;;5030683;28;20683;-58
2021/12/30 10:34:11;;;;;;;23.30;3.60;;;;;;;;;;5032696;28;20036;-57
2021/12/30 10:36:42;;;;;;;17.40;2.83;;;;;;;;;;5030195;28;20119;-58
2021/12/30 10:39:18;;;;;;;14.98;2.85;;;;;;;;;;5032026;28;20035;-57
2021/12/30 10:41:48;;;;;;;17.30;2.83;;;;;;;;;;5032851;28;20888;-58
2021/12/30 10:44:21;;;;;;;22.63;2.50;;;;;;;;;;5010811;28;20079;-58
2021/12/30 10:46:50;;;;;;;18.58;2.80;;;;;;;;;;5033094;28;20033;-58
2021/12/30 10:49:25;;;;;;;16.95;3.13;;;;;;;;;;5013302;28;20056;-58
2021/12/30 10:51:57;;;;;;;10.82;2.70;;;;;;;;;;5011806;28;20033;-59
2021/12/30 10:54:30;;;;;;;23.27;2.97;;;;;;;;;;5031417;28;20118;-57
2021/12/30 10:56:59;;;;;;;23.70;3.75;;;;;;;;;;5027715;28;20044;-58
2021/12/30 10:59:28;;;;;;;19.75;3.17;;;;;;;;;;5027838;28;20040;-58
2021/12/30 11:02:16;;;;;;;19.67;3.50;;;;;;;;;;5027184;28;20118;-57
2021/12/30 11:04:48;;;;;;;19.02;3.42;;;;;;;;;;5026251;28;20033;-57
2021/12/30 11:07:17;;;;;;;28.65;3.13;;;;;;;;;;5026226;28;20187;-58
2021/12/30 11:09:47;;;;;;;25.65;3.75;;;;;;;;;;5023897;28;20041;-56
2021/12/30 11:12:13;;;;;;;15.48;3.53;;;;;;;;;;5030776;28;20107;-56
2021/12/30 11:14:41;;;;;;;34.00;4.03;;;;;;;;;;5029433;28;20162;-54
2021/12/30 11:17:22;;;;;;;22.73;3.97;;;;;;;;;;5030050;28;20119;-56
2021/12/30 11:19:47;;;;;;;27.20;4.28;;;;;;;;;;4995716;28;20220;-56
2021/12/30 11:22:14;;;;;;;37.75;3.92;;;;;;;;;;5028044;28;20025;-57
2021/12/30 11:24:43;;;;;;;38.28;4.70;;;;;;;;;;5015593;28;20036;-57
2021/12/30 11:27:12;;;;;;;21.05;3.50;;;;;;;;;;5030516;28;20018;-58
2021/12/30 11:29:38;;;;;;;27.60;4.75;;;;;;;;;;4994273;28;20544;-57
2021/12/30 11:32:07;;;;;;;48.72;4.57;;;;;;;;;;5029688;28;20051;-57
2021/12/30 11:34:33;;;;;;;32.08;4.43;;;;;;;;;;5028096;28;20459;-58
2021/12/30 11:37:05;;;;;;;37.55;5.25;;;;;;;;;;5012754;28;20033;-58
2021/12/30 11:39:34;;;;;;;37.55;5.18;;;;;;;;;;5012508;28;20866;-57
2021/12/30 11:42:03;;;;;;;38.85;4.70;;;;;;;;;;5030133;28;20187;-57
2021/12/30 11:44:34;;;;;;;30.67;4.15;;;;;;;;;;4996526;28;20096;-57
2021/12/30 11:47:04;;;;;;;25.92;3.85;;;;;;;;;;5013829;28;20029;-56
2021/12/30 11:49:52;;;;;;;34.03;5.00;;;;;;;;;;5010721;28;20021;-58
2021/12/30 11:52:20;;;;;;;;;;;;;;;;;;5013044;28;20372;-58
2021/12/30 11:54:53;;;;;;;36.50;4.50;;;;;;;;;;5028245;28;19919;-58
2021/12/30 11:57:31;;;;;;;31.98;4.55;;;;;;;;;;5030499;28;20040;-58
2021/12/30 12:00:20;;;;;;;38.50;4.47;;;;;;;;;;5015367;28;20037;-58
2021/12/30 12:02:48;;;;;;;37.75;5.05;;;;;;;;;;5012264;28;20111;-58
2021/12/30 12:05:32;;;;;;;20.48;4.63;;;;;;;;;;5011593;28;20047;-57
2021/12/30 12:08:02;;;;;;;31.75;4.07;;;;;;;;;;4992355;28;20047;-57
2021/12/30 12:10:27;;;;;;;39.65;4.95;;;;;;;;;;5018254;28;20025;-57
2021/12/30 12:12:57;;;;;;;37.38;4.32;;;;;;;;;;5012563;28;20044;-57
2021/12/30 12:15:41;;;;;;;33.10;4.07;;;;;;;;;;5027872;28;20160;-57
2021/12/30 12:18:17;;;;;;;28.55;3.63;;;;;;;;;;5010479;28;20128;-57
2021/12/30 12:20:55;;;;;;;28.02;4.00;;;;;;;;;;5006630;28;20061;-57
2021/12/30 12:23:29;;;;;;;25.67;4.63;;;;;;;;;;5032697;28;20228;-58
2021/12/30 12:26:14;;;;;;;33.15;4.30;;;;;;;;;;5011666;28;20608;-57
2021/12/30 12:28:42;;;;;;;22.00;3.22;;;;;;;;;;5014212;28;20096;-57
2021/12/30 12:31:09;;;;;;;14.52;2.83;;;;;;;;;;5031734;28;20041;-57
2021/12/30 12:33:38;;;;;;;31.67;4.13;;;;;;;;;;5011218;28;20021;-56
2021/12/30 12:36:26;;;;;;;31.25;4.05;;;;;;;;;;5012807;28;20781;-57
2021/12/30 12:38:57;;;;;;;37.20;4.20;;;;;;;;;;5011852;28;20055;-54
2021/12/30 12:41:25;;;;;;;32.30;3.47;;;;;;;;;;5014817;28;20037;-56
2021/12/30 12:44:10;;;;;;;33.58;4.82;;;;;;;;;;5012018;28;20027;-56
2021/12/30 12:46:39;;;;;;;30.92;5.47;;;;;;;;;;5015104;28;20040;-57
2021/12/30 12:49:06;;;;;;;37.42;3.80;;;;;;;;;;5014908;28;20024;-56
2021/12/30 12:51:35;;;;;;;38.35;4.30;;;;;;;;;;4996221;28;20683;-57
2021/12/30 12:54:02;;;;;;;34.50;4.20;;;;;;;;;;5027184;28;20087;-57
2021/12/30 12:56:45;;;;;;;37.55;4.18;;;;;;;;;;5015970;28;20032;-57
2021/12/30 12:59:15;;;;;;;32.70;4.15;;;;;;;;;;5031361;28;20033;-57
2021/12/30 13:01:42;;;;;;;25.77;3.35;;;;;;;;;;5031163;28;20045;-57
2021/12/30 13:04:08;;;;;;;29.17;5.63;;;;;;;;;;5025560;28;20029;-57
2021/12/30 13:06:39;;;;;;;23.02;3.33;;;;;;;;;;5031574;28;20124;-57
2021/12/30 13:09:09;;;;;;;23.85;3.60;;;;;;;;;;5015919;28;20064;-58
2021/12/30 13:11:36;;;;;;;33.40;4.70;;;;;;;;;;5033102;28;20051;-57
2021/12/30 13:14:05;;;;;;;32.15;3.42;;;;;;;;;;5031854;28;20102;-57
2021/12/30 13:16:33;;;;;;;26.08;4.38;;;;;;;;;;5031689;28;20043;-56
2021/12/30 13:19:06;;;;;;;31.17;3.90;;;;;;;;;;5013673;28;20037;-57
2021/12/30 13:21:39;;;;;;;24.63;3.88;;;;;;;;;;5006051;28;20283;-57
2021/12/30 13:24:07;;;;;;;27.67;3.65;;;;;;;;;;5008716;28;20875;-57
2021/12/30 13:26:42;;;;;;;37.78;4.95;;;;;;;;;;5031065;28;20083;-58
2021/12/30 13:29:07;;;;;;;31.45;3.92;;;;;;;;;;5013888;28;20037;-57
2021/12/30 13:31:37;;;;;;;38.05;4.30;;;;;;;;;;5013204;28;20095;-57
2021/12/30 13:34:03;;;;;;;32.40;3.95;;;;;;;;;;5031467;28;20041;-57
2021/12/30 13:36:30;;;;;;;24.05;4.05;;;;;;;;;;5029720;28;20036;-56
2021/12/30 13:39:12;;;;;;;23.38;3.60;;;;;;;;;;5014046;28;20432;-57
2021/12/30 13:41:50;;;;;;;18.17;3.33;;;;;;;;;;4992492;28;20961;-57
2021/12/30 13:44:19;;;;;;;20.02;3.53;;;;;;;;;;5010832;28;20040;-58
2021/12/30 13:46:46;;;;;;;34.03;5.07;;;;;;;;;;4995582;28;20531;-56
2021/12/30 13:49:14;;;;;;;20.50;3.58;;;;;;;;;;4993910;28;20048;-56
2021/12/30 13:51:42;;;;;;;22.38;4.35;;;;;;;;;;4993812;28;20337;-56
2021/12/30 13:54:10;;;;;;;21.05;4.15;;;;;;;;;;5011149;28;20047;-54
2021/12/30 13:56:36;;;;;;;34.20;3.95;;;;;;;;;;5012426;28;20473;-57
2021/12/30 13:59:03;;;;;;;34.00;4.45;;;;;;;;;;5011346;28;20052;-57
2021/12/30 14:01:32;;;;;;;31.67;4.82;;;;;;;;;;5030026;28;20033;-58
2021/12/30 14:04:08;;;;;;;43.28;5.05;;;;;;;;;;5026492;28;20431;-57
2021/12/30 14:06:33;;;;;;;35.95;3.97;;;;;;;;;;5011306;28;20134;-58
2021/12/30 14:09:07;;;;;;;38.00;4.38;;;;;;;;;;5026859;28;20740;-58
2021/12/30 14:11:32;;;;;;;28.30;4.53;;;;;;;;;;4998790;28;20048;-55
2021/12/30 14:13:59;;;;;;;40.38;4.85;;;;;;;;;;5027830;28;20084;-56
2021/12/30 14:16:26;;;;;;;35.78;5.22;;;;;;;;;;5034893;28;20021;-56
2021/12/30 14:18:57;;;;;;;47.35;5.30;;;;;;;;;;5012269;28;20037;-56
2021/12/30 14:21:27;;;;;;;41.55;5.07;;;;;;;;;;5004291;28;20052;-55
2021/12/30 14:23:56;;;;;;;42.28;5.45;;;;;;;;;;5016715;28;20574;-56
2021/12/30 14:26:28;;;;;;;44.30;5.28;;;;;;;;;;5014938;28;20038;-56
2021/12/30 14:29:01;;;;;;;48.55;5.90;;;;;;;;;;5014421;28;20430;-57
2021/12/30 14:31:37;;;;;;;38.40;4.93;;;;;;;;;;5010777;28;20095;-55
2021/12/30 14:34:06;;;;;;;31.35;5.18;;;;;;;;;;5015583;28;20064;-57
2021/12/30 14:36:34;;;;;;;47.10;4.97;;;;;;;;;;5015067;28;20117;-57
2021/12/30 14:39:16;;;;;;;41.75;4.78;;;;;;;;;;5015753;28;20047;-56
2021/12/30 14:41:41;;;;;;;41.50;5.00;;;;;;;;;;5015795;28;20040;-57
2021/12/30 14:44:12;;;;;;;40.13;6.15;;;;;;;;;;5015490;28;20028;-55
2021/12/30 14:46:41;;;;;;;45.30;6.15;;;;;;;;;;5008239;28;20048;-56
2021/12/30 14:49:07;;;;;;;35.50;5.20;;;;;;;;;;5016603;28;20040;-54